Ranger Creek, WA

5:30 AM PST on December 11, 2017 (GMT -0800)
Crystal River Ranch - Bubba Station | | Change Station

Elev 1969 ft 47.11 °N, 121.61 °W | Updated 38 seconds ago

Partly Cloudy
Partly Cloudy
26.2 °F
Feels Like 26 °F
N
0.0
Wind Variable Wind from South

Today
High -- | Low -- °F
--% Chance of Precip.
Yesterday
High -- | Low -- °F
Precip. -- in
Pressure 30.55 in
Visibility 0.5 miles
Clouds
Windchill 26 °F
Dew Point 25 °F
Humidity 98%
Rainfall 0.00 in
Snow Depth Not available.
7:42 AM 4:16 PM
Last Quarter, 37% visible
METAR KSMP 111256Z AUTO 36007G19KT 250V050 1/2SM FZFG VV001 M07/M08 A3040 RMK AO2 SLP343 T10721083 $
Pressure 30.55 in
Visibility 0.5 miles
Clouds
Windchill 26 °F
Dew Point 25 °F
Humidity 98%
Rainfall 0.00 in
Snow Depth Not available.
7:42 AM 4:16 PM
Last Quarter, 37% visible
METAR KSMP 111256Z AUTO 36007G19KT 250V050 1/2SM FZFG VV001 M07/M08 A3040 RMK AO2 SLP343 T10721083 $

Get Severe Weather Alerts

Thanks for signing up!

Be on the lookout for a verification email in your inbox.

You'll start receiving the daily forecast at 6 AM.

×

10-Day Weather Forecast

Almanac

Astronomy

Dec. 11, 2017 Rise Set
Actual Time
Civil Twilight
Nautical Twilight
Astronomical Twilight
Moon
Length of Visible Light
Length of Day
Tomorrow will be .
, % of the Moon is Illuminated

Today's Extremes

State Highs State Lows

Community

WunderPhotos

Category 6

Welcome to Category 6. This is the collective home for Weather Underground's featured writeups by Dr. Jeff Masters (right), Bob Henson (left), Chris Burt, and other regular contributors.

Nearby

Air Quality

  Air Quality AQ Index Pollutant
Not available.

Snow Depth

Station Depth Elevation

Earthquake Activity

City Distance Mag. Time & Date
Minimum magnitude displayed is 2.5.

Coastal Water Temperatures

Place Temperature

Stations

Nearby Weather Stations

Station Location Temp. Windchill Dew Point Humidity Wind Precip. Elev Updated Type
                   

Watches & Warnings

There are currently no watches in effect.